createdAt,value
2022-11-25T00:01:12.454Z,8.81
2022-11-25T00:03:39.965Z,8.87
2022-11-25T00:06:15.662Z,8.81
2022-11-25T00:08:43.564Z,8.95
2022-11-25T00:11:10.535Z,9.02
2022-11-25T00:13:37.744Z,8.99
2022-11-25T00:16:05.609Z,8.89
2022-11-25T00:18:32.186Z,8.86
2022-11-25T00:20:58.960Z,8.88
2022-11-25T00:23:29.159Z,8.86
2022-11-25T00:26:11.047Z,8.82
2022-11-25T00:28:38.182Z,8.85
2022-11-25T00:31:09.480Z,8.91
2022-11-25T00:33:36.664Z,8.87
2022-11-25T00:36:04.526Z,8.76
2022-11-25T00:38:31.027Z,8.66
2022-11-25T00:41:16.387Z,8.68
2022-11-25T00:44:01.692Z,8.83
2022-11-25T00:46:28.204Z,8.97
2022-11-25T00:48:55.017Z,9.01
2022-11-25T00:51:21.961Z,9.03
2022-11-25T00:53:48.605Z,8.92
2022-11-25T00:56:15.439Z,8.75
2022-11-25T00:58:43.062Z,8.64
2022-11-25T01:01:11.101Z,8.43
2022-11-25T01:03:37.648Z,8.40
2022-11-25T01:06:05.958Z,8.24
2022-11-25T01:08:35.241Z,8.03
2022-11-25T01:11:03.190Z,7.98
2022-11-25T01:13:29.686Z,8.10
2022-11-25T01:15:56.613Z,8.05
2022-11-25T01:18:23.281Z,8.14
2022-11-25T01:20:49.780Z,8.20
2022-11-25T01:23:16.330Z,8.20
2022-11-25T01:25:42.827Z,8.12
2022-11-25T01:28:09.359Z,7.90
2022-11-25T01:30:41.072Z,7.85
2022-11-25T01:33:07.924Z,7.73
2022-11-25T01:35:36.205Z,7.50
2022-11-25T01:38:02.931Z,7.44
2022-11-25T01:40:29.838Z,7.53
2022-11-25T01:42:56.392Z,7.40
2022-11-25T01:45:25.537Z,7.54
2022-11-25T01:47:58.735Z,7.55
2022-11-25T01:50:27.050Z,7.50
2022-11-25T01:52:54.943Z,7.48
2022-11-25T01:55:24.092Z,7.41
2022-11-25T01:58:11.638Z,7.50
2022-11-25T02:00:39.097Z,7.38
2022-11-25T02:03:06.964Z,7.33
2022-11-25T02:05:41.684Z,7.47
2022-11-25T02:08:09.144Z,7.57
2022-11-25T02:10:36.799Z,7.61
2022-11-25T02:13:03.731Z,7.66
2022-11-25T02:15:33.249Z,7.82
2022-11-25T02:18:00.500Z,7.87
2022-11-25T02:20:27.281Z,7.75
2022-11-25T02:23:14.462Z,7.80
2022-11-25T02:25:42.868Z,7.98
2022-11-25T02:28:17.048Z,8.16
2022-11-25T02:30:44.405Z,8.19
2022-11-25T02:33:11.339Z,8.08
2022-11-25T02:35:42.184Z,7.93
2022-11-25T02:38:11.244Z,7.86
2022-11-25T02:40:43.918Z,7.80
2022-11-25T02:43:10.629Z,7.73
2022-11-25T02:45:48.933Z,7.65
2022-11-25T02:48:16.162Z,7.70
2022-11-25T02:50:42.943Z,7.77
2022-11-25T02:53:09.692Z,7.78
2022-11-25T02:55:36.780Z,7.83
2022-11-25T02:58:03.706Z,7.96
2022-11-25T03:00:30.515Z,7.97
2022-11-25T03:02:57.100Z,7.86
2022-11-25T03:05:24.048Z,8.05
2022-11-25T03:07:51.052Z,8.33
2022-11-25T03:10:21.245Z,8.51
2022-11-25T03:12:48.049Z,8.66
2022-11-25T03:15:14.744Z,8.85
2022-11-25T03:17:41.631Z,8.77
2022-11-25T03:20:09.782Z,8.69
2022-11-25T03:22:36.608Z,8.65
2022-11-25T03:25:04.154Z,8.66
2022-11-25T03:27:32.989Z,8.52
2022-11-25T03:30:00.251Z,8.43
2022-11-25T03:32:27.312Z,8.34
2022-11-25T03:34:54.024Z,8.38
2022-11-25T03:37:20.884Z,8.24
2022-11-25T03:39:47.913Z,8.22
2022-11-25T03:42:14.678Z,8.18
2022-11-25T03:44:41.939Z,8.05
2022-11-25T03:47:08.956Z,7.91
2022-11-25T03:49:35.923Z,7.65
2022-11-25T03:52:03.146Z,7.73
2022-11-25T03:54:30.691Z,7.70
2022-11-25T03:57:16.801Z,7.48
2022-11-25T03:59:44.008Z,7.43
2022-11-25T04:02:11.052Z,7.27
2022-11-25T04:04:38.020Z,7.40
2022-11-25T04:07:04.929Z,7.41
2022-11-25T04:09:32.315Z,7.41
2022-11-25T04:12:18.941Z,7.37
2022-11-25T04:14:51.506Z,7.56
2022-11-25T04:17:18.254Z,7.72
2022-11-25T04:19:45.199Z,7.87
2022-11-25T04:22:11.995Z,8.09
2022-11-25T04:24:40.521Z,8.12
2022-11-25T04:27:07.978Z,8.11
2022-11-25T04:29:35.021Z,7.96
2022-11-25T04:32:03.606Z,7.86
2022-11-25T04:34:30.654Z,7.70
2022-11-25T04:36:58.635Z,7.72
2022-11-25T04:39:25.651Z,7.72
2022-11-25T04:42:14.014Z,7.47
2022-11-25T04:44:40.750Z,7.45
2022-11-25T04:47:07.355Z,7.40
2022-11-25T04:49:35.955Z,7.21
2022-11-25T04:52:02.841Z,7.15
2022-11-25T04:54:29.402Z,7.26
2022-11-25T04:56:58.746Z,7.40
2022-11-25T04:59:40.805Z,7.62
2022-11-25T05:02:19.302Z,7.69
2022-11-25T05:04:56.237Z,7.73
2022-11-25T05:07:24.833Z,7.67
2022-11-25T05:09:52.174Z,7.69
2022-11-25T05:12:31.816Z,7.83
2022-11-25T05:14:59.177Z,7.80
2022-11-25T05:17:28.264Z,7.80
2022-11-25T05:19:55.389Z,7.78
2022-11-25T05:22:24.096Z,7.82
2022-11-25T05:24:51.244Z,8.00
2022-11-25T05:27:18.482Z,8.19
2022-11-25T05:29:45.505Z,8.33
2022-11-25T05:32:13.125Z,8.28
2022-11-25T05:34:40.348Z,8.16
2022-11-25T05:37:08.111Z,8.23
2022-11-25T05:39:35.113Z,8.41
2022-11-25T05:42:25.148Z,8.61
2022-11-25T05:44:52.677Z,8.68
2022-11-25T05:47:19.202Z,8.76
2022-11-25T05:49:46.178Z,8.80
2022-11-25T05:52:12.992Z,8.67
2022-11-25T05:54:46.215Z,8.48
2022-11-25T05:57:12.728Z,8.34
2022-11-25T05:59:42.707Z,8.40
2022-11-25T06:02:13.817Z,8.33
2022-11-25T06:04:40.648Z,8.24
2022-11-25T06:07:08.819Z,8.13
2022-11-25T06:09:35.855Z,8.03
2022-11-25T06:12:03.421Z,7.87
2022-11-25T06:14:30.406Z,7.81
2022-11-25T06:16:57.098Z,7.85
2022-11-25T06:19:36.512Z,8.10
2022-11-25T06:22:03.003Z,8.22
2022-11-25T06:24:32.923Z,8.08
2022-11-25T06:27:06.712Z,7.87
2022-11-25T06:29:35.117Z,7.78
2022-11-25T06:32:02.116Z,7.68
2022-11-25T06:34:44.009Z,7.64
2022-11-25T06:37:29.393Z,7.84
2022-11-25T06:39:56.225Z,8.07
2022-11-25T06:42:22.862Z,8.06
2022-11-25T06:44:49.458Z,8.00
2022-11-25T06:47:16.035Z,8.18
2022-11-25T06:49:42.568Z,8.40
2022-11-25T06:52:09.210Z,8.45
2022-11-25T06:54:40.551Z,8.50
2022-11-25T06:57:08.077Z,8.49
2022-11-25T06:59:35.346Z,8.35
2022-11-25T07:02:02.040Z,8.22
2022-11-25T07:04:28.766Z,8.06
2022-11-25T07:06:55.302Z,8.09
2022-11-25T07:09:21.991Z,8.03
2022-11-25T07:11:48.544Z,8.02
2022-11-25T07:14:16.049Z,8.03
2022-11-25T07:16:44.187Z,7.91
2022-11-25T07:19:12.083Z,7.87
2022-11-25T07:21:39.362Z,7.83
2022-11-25T07:24:07.272Z,7.95
2022-11-25T07:26:35.660Z,8.01
2022-11-25T07:29:03.501Z,8.06
2022-11-25T07:31:33.665Z,8.21
2022-11-25T07:34:05.182Z,8.23
2022-11-25T07:36:33.057Z,8.46
2022-11-25T07:39:01.107Z,8.54
2022-11-25T07:41:28.460Z,8.69
2022-11-25T07:43:56.246Z,8.85
2022-11-25T07:46:27.340Z,8.89
2022-11-25T07:48:55.866Z,8.83
2022-11-25T07:51:41.790Z,8.54
2022-11-25T07:54:10.216Z,8.82
2022-11-25T07:56:38.700Z,9.08
2022-11-25T07:59:06.355Z,9.32
2022-11-25T08:01:33.042Z,9.49
2022-11-25T08:03:59.927Z,9.56
2022-11-25T08:06:27.596Z,9.34
2022-11-25T08:08:55.598Z,9.43
2022-11-25T08:11:26.661Z,9.39
2022-11-25T08:13:53.755Z,9.41
2022-11-25T08:16:21.960Z,9.32
2022-11-25T08:18:48.731Z,9.27
2022-11-25T08:21:16.422Z,9.38
2022-11-25T08:23:46.957Z,9.45
2022-11-25T08:26:15.446Z,9.25
2022-11-25T08:28:42.996Z,9.33
2022-11-25T08:31:11.231Z,8.82
2022-11-25T08:33:38.758Z,8.19
2022-11-25T08:36:06.086Z,7.71
2022-11-25T08:38:33.195Z,7.58
2022-11-25T08:41:00.171Z,7.56
2022-11-25T08:43:29.565Z,7.39
2022-11-25T08:45:56.751Z,7.35
2022-11-25T08:48:24.004Z,7.43
2022-11-25T08:50:52.663Z,7.59
2022-11-25T08:53:19.912Z,7.70
2022-11-25T08:55:46.595Z,7.64
2022-11-25T08:58:13.493Z,7.66
2022-11-25T09:00:41.600Z,7.69
2022-11-25T09:03:09.469Z,7.66
2022-11-25T09:05:40.973Z,7.92
2022-11-25T09:08:08.739Z,8.07
2022-11-25T09:10:36.641Z,8.04
2022-11-25T09:13:03.887Z,7.93
2022-11-25T09:15:30.705Z,7.98
2022-11-25T09:18:01.264Z,7.95
2022-11-25T09:20:28.074Z,7.93
2022-11-25T09:22:54.705Z,7.83
2022-11-25T09:25:22.448Z,7.49
2022-11-25T09:27:49.008Z,7.15
2022-11-25T09:30:15.990Z,6.95
2022-11-25T09:32:43.706Z,6.77
2022-11-25T09:35:10.659Z,6.61
2022-11-25T09:37:37.347Z,6.63
2022-11-25T09:40:05.964Z,6.74
2022-11-25T09:43:10.495Z,6.68
2022-11-25T09:46:03.669Z,6.55
2022-11-25T09:48:30.815Z,6.47
2022-11-25T09:51:16.615Z,6.58
2022-11-25T09:53:43.522Z,7.19
2022-11-25T09:56:14.316Z,7.84
2022-11-25T09:58:46.613Z,8.05
2022-11-25T10:01:22.294Z,7.98
2022-11-25T10:04:15.240Z,7.94
2022-11-25T10:06:55.086Z,7.99
2022-11-25T10:09:24.394Z,7.99
2022-11-25T10:11:52.970Z,8.18
2022-11-25T10:14:20.130Z,8.09
2022-11-25T10:16:51.255Z,7.95
2022-11-25T10:19:37.153Z,7.86
2022-11-25T10:22:24.175Z,7.69
2022-11-25T10:24:52.749Z,7.76
2022-11-25T10:27:26.695Z,7.66
2022-11-25T10:30:01.059Z,7.82
2022-11-25T10:32:32.570Z,7.77
2022-11-25T10:35:01.899Z,7.56
2022-11-25T10:37:30.461Z,7.80
2022-11-25T10:39:57.267Z,8.04
2022-11-25T10:42:25.618Z,7.92
2022-11-25T10:44:54.148Z,8.05
2022-11-25T10:47:30.073Z,7.81
2022-11-25T10:50:03.167Z,7.67
2022-11-25T10:52:33.615Z,7.50
2022-11-25T10:55:09.131Z,7.60
2022-11-25T10:57:35.944Z,7.78
2022-11-25T11:00:04.061Z,7.86
2022-11-25T11:02:37.965Z,7.67
2022-11-25T11:05:08.258Z,7.37
2022-11-25T11:07:42.353Z,7.41
2022-11-25T11:10:15.404Z,7.52
2022-11-25T11:12:56.158Z,7.76
2022-11-25T11:15:25.833Z,7.94
2022-11-25T11:17:54.004Z,7.94
2022-11-25T11:20:24.972Z,7.97
2022-11-25T11:22:54.370Z,8.50
2022-11-25T11:25:21.062Z,8.91
2022-11-25T11:27:47.926Z,9.01
2022-11-25T11:30:16.764Z,8.97
2022-11-25T11:32:47.191Z,8.73
2022-11-25T11:35:13.848Z,8.82
2022-11-25T11:37:40.765Z,8.90
2022-11-25T11:40:10.128Z,8.71
2022-11-25T11:42:39.730Z,8.19
2022-11-25T11:45:15.782Z,7.93
2022-11-25T11:48:01.469Z,7.86
2022-11-25T11:50:28.618Z,7.85
2022-11-25T11:53:04.367Z,7.92
2022-11-25T11:55:37.349Z,8.08
2022-11-25T11:58:16.160Z,8.25
2022-11-25T12:00:52.855Z,8.22
2022-11-25T12:03:24.874Z,8.09
2022-11-25T12:05:55.274Z,7.89
2022-11-25T12:08:28.011Z,7.54
2022-11-25T12:11:02.460Z,7.25
2022-11-25T12:13:41.702Z,6.97
2022-11-25T12:16:15.136Z,6.94
2022-11-25T12:18:48.930Z,6.99
2022-11-25T12:21:28.020Z,6.92
2022-11-25T12:24:12.898Z,7.13
2022-11-25T12:26:54.082Z,7.32
2022-11-25T12:29:40.826Z,7.60
2022-11-25T12:32:26.390Z,7.82
2022-11-25T12:34:57.390Z,7.84
2022-11-25T12:37:29.865Z,7.51
2022-11-25T12:40:22.563Z,7.30
2022-11-25T12:42:49.424Z,7.46
2022-11-25T12:45:23.880Z,7.88
2022-11-25T12:47:51.648Z,8.03
2022-11-25T12:50:27.033Z,8.25
2022-11-25T12:52:59.275Z,8.46
2022-11-25T12:55:27.496Z,8.54
2022-11-25T12:57:58.145Z,8.43
2022-11-25T13:00:45.661Z,8.06
2022-11-25T13:03:24.272Z,8.02
2022-11-25T13:05:50.935Z,8.27
2022-11-25T13:08:17.600Z,8.34
2022-11-25T13:10:44.082Z,8.41
2022-11-25T13:13:23.274Z,8.32
2022-11-25T13:15:53.636Z,8.13
2022-11-25T13:18:23.392Z,7.99
2022-11-25T13:20:54.071Z,8.08
2022-11-25T13:23:28.258Z,8.25
2022-11-25T13:26:14.893Z,8.33
2022-11-25T13:28:41.630Z,8.01
2022-11-25T13:31:14.364Z,7.85
2022-11-25T13:33:44.983Z,7.80
2022-11-25T13:36:16.237Z,7.71
2022-11-25T13:38:46.201Z,7.62
2022-11-25T13:41:15.765Z,7.54
2022-11-25T13:44:02.040Z,7.52
2022-11-25T13:46:34.123Z,7.43
2022-11-25T13:49:01.627Z,7.63
2022-11-25T13:51:28.566Z,7.72
2022-11-25T13:53:57.120Z,7.49
2022-11-25T13:56:26.037Z,7.27
2022-11-25T13:59:10.768Z,7.01
2022-11-25T14:01:39.457Z,7.02
2022-11-25T14:04:10.360Z,7.17
2022-11-25T14:06:36.821Z,7.25
2022-11-25T14:09:22.261Z,7.33
2022-11-25T14:11:51.871Z,7.20
2022-11-25T14:14:37.323Z,7.14
2022-11-25T14:17:13.990Z,7.18
2022-11-25T14:19:53.761Z,7.33
2022-11-25T14:22:20.475Z,7.42
2022-11-25T14:24:55.446Z,7.38
2022-11-25T14:27:25.126Z,7.47
2022-11-25T14:29:54.108Z,7.50
2022-11-25T14:32:30.040Z,7.34
2022-11-25T14:35:01.608Z,7.29
2022-11-25T14:37:36.445Z,7.36
2022-11-25T14:40:12.624Z,7.36
2022-11-25T14:42:42.069Z,7.24
2022-11-25T14:45:32.847Z,7.14
2022-11-25T14:48:16.844Z,7.34
2022-11-25T14:50:57.990Z,7.43
2022-11-25T14:53:25.890Z,7.48
2022-11-25T14:55:54.370Z,7.47
2022-11-25T14:58:21.210Z,7.53
2022-11-25T15:00:51.897Z,7.73
2022-11-25T15:03:19.591Z,7.86
2022-11-25T15:05:53.235Z,8.00
2022-11-25T15:08:21.587Z,8.20
2022-11-25T15:10:54.365Z,8.13
2022-11-25T15:13:39.635Z,8.24
2022-11-25T15:16:06.295Z,8.15
2022-11-25T15:18:34.999Z,8.14
2022-11-25T15:21:02.330Z,8.16
2022-11-25T15:23:36.627Z,8.08
2022-11-25T15:26:04.090Z,7.76
2022-11-25T15:28:34.814Z,7.51
2022-11-25T15:31:02.114Z,7.43
2022-11-25T15:33:29.225Z,7.28
2022-11-25T15:35:56.151Z,7.02
2022-11-25T15:38:36.527Z,6.86
2022-11-25T15:41:03.671Z,6.83
2022-11-25T15:43:32.145Z,6.67
2022-11-25T15:46:03.305Z,6.65
2022-11-25T15:48:36.426Z,6.73
2022-11-25T15:51:04.979Z,6.73
2022-11-25T15:53:36.230Z,6.57
2022-11-25T15:56:04.847Z,6.75
2022-11-25T15:58:31.427Z,7.05
2022-11-25T16:01:01.194Z,7.18
2022-11-25T16:03:30.879Z,7.34
2022-11-25T16:05:58.500Z,7.52
2022-11-25T16:08:34.622Z,7.52
2022-11-25T16:11:12.157Z,7.73
2022-11-25T16:13:39.608Z,7.85
2022-11-25T16:16:18.718Z,7.89
2022-11-25T16:18:54.267Z,7.91
2022-11-25T16:21:25.527Z,7.80
2022-11-25T16:23:57.726Z,7.91
2022-11-25T16:26:29.283Z,7.88
2022-11-25T16:28:57.607Z,7.61
2022-11-25T16:31:24.747Z,7.61
2022-11-25T16:33:56.171Z,7.56
2022-11-25T16:36:22.962Z,7.55
2022-11-25T16:38:51.299Z,7.66
2022-11-25T16:41:20.205Z,7.76
2022-11-25T16:43:46.859Z,7.59
2022-11-25T16:46:15.610Z,7.50
2022-11-25T16:48:42.169Z,7.55
2022-11-25T16:51:16.228Z,7.39
2022-11-25T16:53:43.566Z,7.01
2022-11-25T16:56:12.374Z,7.03
2022-11-25T16:58:38.971Z,7.19
2022-11-25T17:01:10.010Z,7.20
2022-11-25T17:03:36.748Z,6.91
2022-11-25T17:06:10.326Z,6.89
2022-11-25T17:08:37.327Z,6.48
2022-11-25T17:11:04.589Z,5.30
2022-11-25T17:13:31.238Z,5.03
2022-11-25T17:15:58.179Z,5.16
2022-11-25T17:18:25.131Z,5.53
2022-11-25T17:20:51.915Z,5.73
2022-11-25T17:23:18.548Z,6.01
2022-11-25T17:25:48.263Z,6.23
2022-11-25T17:28:16.951Z,6.33
2022-11-25T17:30:44.497Z,6.47
2022-11-25T17:33:15.392Z,6.67
2022-11-25T17:35:42.895Z,6.87
2022-11-25T17:38:13.735Z,6.89
2022-11-25T17:40:42.746Z,6.85
2022-11-25T17:43:14.745Z,6.94
2022-11-25T17:45:42.156Z,6.90
2022-11-25T17:48:09.972Z,6.88
2022-11-25T17:50:36.635Z,7.23
2022-11-25T17:53:03.146Z,7.48
2022-11-25T17:55:30.755Z,7.55
2022-11-25T17:57:57.450Z,7.51
2022-11-25T18:00:24.251Z,7.58
2022-11-25T18:02:51.117Z,7.84
2022-11-25T18:05:19.842Z,8.15
2022-11-25T18:07:47.157Z,8.10
2022-11-25T18:10:15.508Z,7.75
2022-11-25T18:12:43.173Z,7.45
2022-11-25T18:15:17.856Z,7.70
2022-11-25T18:17:44.895Z,7.79
2022-11-25T18:20:14.847Z,7.73
2022-11-25T18:22:45.379Z,7.90
2022-11-25T18:25:13.146Z,8.12
2022-11-25T18:27:39.688Z,8.27
2022-11-25T18:30:09.630Z,8.34
2022-11-25T18:32:36.190Z,8.39
2022-11-25T18:35:05.739Z,8.37
2022-11-25T18:37:32.391Z,8.43
2022-11-25T18:39:59.171Z,8.38
2022-11-25T18:42:26.629Z,8.28
2022-11-25T18:44:54.683Z,8.05
2022-11-25T18:47:21.385Z,7.80
2022-11-25T18:49:53.860Z,7.73
2022-11-25T18:52:22.902Z,7.85
2022-11-25T18:54:49.791Z,7.66
2022-11-25T18:57:16.311Z,7.66
2022-11-25T18:59:43.890Z,7.59
2022-11-25T19:02:15.400Z,7.66
2022-11-25T19:04:42.266Z,7.81
2022-11-25T19:07:08.826Z,7.65
2022-11-25T19:09:36.925Z,7.58
2022-11-25T19:12:03.780Z,7.48
2022-11-25T19:14:32.904Z,7.37
2022-11-25T19:17:01.471Z,7.22
2022-11-25T19:19:28.613Z,7.48
2022-11-25T19:21:55.488Z,7.81
2022-11-25T19:24:22.191Z,7.75
2022-11-25T19:26:50.258Z,7.66
2022-11-25T19:29:18.964Z,7.58
2022-11-25T19:31:46.567Z,7.60
2022-11-25T19:34:22.965Z,7.88
2022-11-25T19:36:49.430Z,8.13
2022-11-25T19:39:17.570Z,8.22
2022-11-25T19:41:44.265Z,8.09
2022-11-25T19:44:10.810Z,7.85
2022-11-25T19:47:07.027Z,7.96
2022-11-25T19:49:26.318Z,8.11
2022-11-25T19:51:52.971Z,8.12
2022-11-25T19:54:19.611Z,8.05
2022-11-25T19:56:46.125Z,8.02
2022-11-25T19:59:12.678Z,8.01
2022-11-25T20:01:41.126Z,8.06
2022-11-25T20:04:11.855Z,8.06
2022-11-25T20:06:38.631Z,8.03
2022-11-25T20:09:09.415Z,8.03
2022-11-25T20:11:36.251Z,7.97
2022-11-25T20:14:03.771Z,7.95
2022-11-25T20:16:34.243Z,7.83
2022-11-25T20:19:01.131Z,7.76
2022-11-25T20:21:32.436Z,7.76
2022-11-25T20:23:59.555Z,7.72
2022-11-25T20:26:28.925Z,7.74
2022-11-25T20:28:55.460Z,7.75
2022-11-25T20:31:24.276Z,7.76
2022-11-25T20:33:53.955Z,7.81
2022-11-25T20:36:28.374Z,7.81
2022-11-25T20:38:57.207Z,7.75
2022-11-25T20:41:28.000Z,7.70
2022-11-25T20:43:56.008Z,7.68
2022-11-25T20:46:25.626Z,7.79
2022-11-25T20:49:00.380Z,7.95
2022-11-25T20:51:27.403Z,8.00
2022-11-25T20:54:00.275Z,8.15
2022-11-25T20:56:27.434Z,8.22
2022-11-25T20:58:54.625Z,8.26
2022-11-25T21:01:21.229Z,8.25
2022-11-25T21:03:49.169Z,8.23
2022-11-25T21:06:25.119Z,8.12
2022-11-25T21:08:52.533Z,7.96
2022-11-25T21:11:19.995Z,7.94
2022-11-25T21:13:47.252Z,7.80
2022-11-25T21:16:13.853Z,7.82
2022-11-25T21:18:41.157Z,7.99
2022-11-25T21:21:15.866Z,8.12
2022-11-25T21:23:42.942Z,8.23
2022-11-25T21:26:19.706Z,8.26
2022-11-25T21:28:48.060Z,8.30
2022-11-25T21:31:18.809Z,8.12
2022-11-25T21:33:45.839Z,7.99
2022-11-25T21:36:17.080Z,7.91
2022-11-25T21:38:44.235Z,7.69
2022-11-25T21:41:11.072Z,7.76
2022-11-25T21:43:40.066Z,7.98
2022-11-25T21:46:09.852Z,8.04
2022-11-25T21:48:36.595Z,7.94
2022-11-25T21:51:03.298Z,7.96
2022-11-25T21:53:33.253Z,7.86
2022-11-25T21:56:11.069Z,7.68
2022-11-25T21:58:38.216Z,7.69
2022-11-25T22:01:05.305Z,7.61
2022-11-25T22:03:32.101Z,7.50
2022-11-25T22:05:58.614Z,7.61
2022-11-25T22:08:25.483Z,7.65
2022-11-25T22:10:54.219Z,7.75
2022-11-25T22:13:23.156Z,7.69
2022-11-25T22:15:53.345Z,7.64
2022-11-25T22:18:30.668Z,7.66
2022-11-25T22:20:57.604Z,7.78
2022-11-25T22:23:24.959Z,7.63
2022-11-25T22:25:52.209Z,7.49
2022-11-25T22:28:20.995Z,7.60
2022-11-25T22:30:51.896Z,7.58
2022-11-25T22:33:20.209Z,7.53
2022-11-25T22:35:46.827Z,7.46
2022-11-25T22:38:15.803Z,7.55
2022-11-25T22:40:43.648Z,7.56
2022-11-25T22:43:18.230Z,7.74
2022-11-25T22:45:45.543Z,7.89
2022-11-25T22:48:14.776Z,7.93
2022-11-25T22:50:42.592Z,7.84
2022-11-25T22:53:14.112Z,7.91
2022-11-25T22:55:41.006Z,8.05
2022-11-25T22:58:09.345Z,8.03
2022-11-25T23:00:37.869Z,8.07
2022-11-25T23:03:05.917Z,8.02
2022-11-25T23:05:34.109Z,7.85
2022-11-25T23:08:02.311Z,7.67
2022-11-25T23:10:30.908Z,7.64
2022-11-25T23:12:57.386Z,7.60
2022-11-25T23:15:24.310Z,7.78
2022-11-25T23:17:54.920Z,7.73
2022-11-25T23:20:23.384Z,7.61
2022-11-25T23:22:50.011Z,7.52
2022-11-25T23:25:18.489Z,7.68
2022-11-25T23:27:45.127Z,7.72
2022-11-25T23:30:21.874Z,7.60
2022-11-25T23:32:49.333Z,7.55
2022-11-25T23:35:17.492Z,7.55
2022-11-25T23:37:45.575Z,7.66
2022-11-25T23:40:19.259Z,7.74
2022-11-25T23:42:46.344Z,7.89
2022-11-25T23:45:14.454Z,7.89
2022-11-25T23:47:42.326Z,7.71
2022-11-25T23:50:14.864Z,7.80
2022-11-25T23:52:41.598Z,7.83
2022-11-25T23:55:12.646Z,7.91
2022-11-25T23:57:39.381Z,7.93
